Список аэропортов
Фактическая погода:

23 апреля, 12:20
Температура: +6°C (+2.6*)
Ветер: западный 5 м/с
Давление: *767 мм
неб. облачность
780 м
разорв. обл.
1500 м
Время (МСК)Темп. СВетерВлажностьДавлениеОблачностьОсадки
09:00+4СЗ, 3 м/с74%1024 гПаоблачно
10:00+4СЗ, 3 м/с68%1024 гПаоблачно
11:00+5СЗ, 3 м/с62%1024 гПаоблачно
12:00+6З, 4 м/с56%1024 гПаоблачно
13:00+7З, 5 м/с52%1023 гПаоблачно
14:00+8СЗ, 5 м/с49%1023 гПаоблачно
15:00+8СЗ, 5 м/с47%1023 гПаоблачно
16:00+8СЗ, 5 м/с46%1022 гПаоблачно
17:00+9СЗ, 5 м/с44%1022 гПаоблачно
18:00+9СЗ, 5 м/с44%1022 гПаоблачно
19:00+9СЗ, 5 м/с44%1022 гПас прояснениями
20:00+9СЗ, 5 м/с44%1022 гПас прояснениями
21:00+8СЗ, 4 м/с43%1022 гПаоблачно
22:00+7СЗ, 3 м/с49%1023 гПас прояснениями
23:00+5СЗ, 2 м/с57%1024 гПамалооблачно
24 апреля
00:00+4СЗ, 1 м/с67%1024 гПаясно
01:00+2З, 1 м/с73%1024 гПаясно
02:00+2ЮЗ, 2 м/с78%1024 гПаясно
03:00+1Ю, 2 м/с84%1024 гПаясно
04:000Ю, 2 м/с88%1024 гПаясно
05:00-0Ю, 1 м/с92%1023 гПаясно
06:00-1Ю, 1 м/с96%1022 гПаясно
07:00-1Штиль 98%1022 гПас прояснениями
08:00-1ЮВ, 1 м/с98%1022 гПас прояснениями
09:00-0В, 1 м/с93%1021 гПаясно
10:00+5ЮВ, 2 м/с62%1019 гПаясно
11:00+8ЮВ, 4 м/с48%1018 гПаясно
12:00+10ЮВ, 3 м/с48%1017 гПаясно
13:00+11ЮВ, 2 м/с47%1016 гПаясно
14:00+12В, 1 м/с44%1015 гПаясно
15:00+13Штиль 42%1014 гПаясно
16:00+15ЮЗ, 1 м/с39%1013 гПаясно
17:00+16ЮЗ, 1 м/с37%1012 гПаясно
18:00+16ЮЗ, 1 м/с36%1011 гПаясно
19:00+16ЮЗ, 1 м/с36%1010 гПаясно
20:00+16Ю, 2 м/с39%1010 гПаясно
21:00+14Ю, 1 м/с46%1009 гПаоблачно
22:00+13ЮВ, 1 м/с55%1009 гПас прояснениями
23:00+11Ю, 2 м/с65%1009 гПаоблачно
25 апреля
00:00+10Ю, 2 м/с72%1009 гПаоблачнодождь
01:00+10Ю, 3 м/с77%1008 гПамалооблачносл. дождь
02:00+10Ю, 4 м/с80%1008 гПаоблачно
03:00+10Ю, 4 м/с75%1007 гПаоблачно
04:00+10Ю, 4 м/с67%1006 гПаоблачнодождь
05:00+10ЮЗ, 3 м/с73%1005 гПаоблачнодождь
06:00+11ЮЗ, 5 м/с71%1005 гПаоблачнодождь
07:00+11ЮЗ, 6 м/с77%1006 гПаоблачносл. дождь
08:00+11ЮЗ, 6 м/с82%1006 гПаоблачно
09:00+12З, 6 м/с79%1006 гПаоблачно